Time;durP1;ratioP1;P1;durP2;ratioP2;P2;SDS_P1;SDS_P2;PMS_P1;PMS_P2;Temp;Humidity;BMP_temperature;BMP_pressure;BME280_temperature;BME280_humidity;BME280_pressure;Samples;Min_cycle;Max_cycle;Signal;HPM_P1;HPM_P2
2024/03/07 00:01:02;;;;;;;12.98;8.20;;;;;;;2.27;48.78;102862.38;5020901;28;20036;-70
2024/03/07 00:03:27;;;;;;;13.80;8.02;;;;;;;2.26;48.47;102850.28;5023400;28;20147;-70
2024/03/07 00:05:53;;;;;;;11.43;6.70;;;;;;;2.10;48.98;102861.03;5024312;28;20668;-71
2024/03/07 00:08:18;;;;;;;8.90;6.40;;;;;;;2.14;49.09;102861.16;5020172;28;20032;-70
2024/03/07 00:10:44;;;;;;;9.57;7.32;;;;;;;2.16;48.70;102856.03;5024200;28;20561;-75
2024/03/07 00:13:10;;;;;;;11.68;7.63;;;;;;;2.12;48.73;102857.66;5021064;28;20512;-70
2024/03/07 00:15:36;;;;;;;9.05;6.38;;;;;;;2.14;49.19;102865.44;5024607;28;20024;-72
2024/03/07 00:18:02;;;;;;;13.48;6.63;;;;;;;2.15;49.19;102862.03;5027826;28;20040;-71
2024/03/07 00:20:27;;;;;;;9.55;6.35;;;;;;;2.23;49.01;102857.09;5025454;28;20051;-71
2024/03/07 00:22:53;;;;;;;11.80;6.97;;;;;;;2.23;49.08;102860.53;5033071;28;20076;-70
2024/03/07 00:25:22;;;;;;;12.60;7.45;;;;;;;2.20;48.67;102859.56;5023806;28;21090;-71
2024/03/07 00:27:48;;;;;;;10.75;6.75;;;;;;;2.22;49.02;102861.38;5028969;28;20036;-68
2024/03/07 00:30:17;;;;;;;10.35;6.82;;;;;;;2.26;49.24;102859.72;5027114;28;20043;-69
2024/03/07 00:32:43;;;;;;;8.85;6.05;;;;;;;2.27;49.15;102851.19;5027951;28;20114;-70
2024/03/07 00:35:09;;;;;;;13.63;7.70;;;;;;;2.27;49.17;102857.19;5027533;28;20029;-70
2024/03/07 00:37:34;;;;;;;13.35;7.32;;;;;;;2.23;49.32;102850.22;5029002;28;20132;-67
2024/03/07 00:40:00;;;;;;;13.05;7.38;;;;;;;2.20;49.20;102855.28;5029538;28;20036;-68
2024/03/07 00:42:27;;;;;;;13.73;7.45;;;;;;;2.14;49.41;102856.00;5015217;28;20781;-68
2024/03/07 00:44:55;;;;;;;12.38;6.50;;;;;;;2.03;49.71;102846.22;5033829;28;20681;-69
2024/03/07 00:47:21;;;;;;;13.02;7.38;;;;;;;2.21;49.21;102857.03;4981865;28;21335;-71
2024/03/07 00:49:46;;;;;;;18.45;8.25;;;;;;;2.30;49.36;102851.25;5020730;28;20040;-70
2024/03/07 00:52:13;;;;;;;11.63;7.00;;;;;;;2.30;49.47;102857.28;5018607;28;20511;-69
2024/03/07 00:54:44;;;;;;;12.13;7.68;;;;;;;2.35;48.88;102854.81;5025224;28;20123;-73
2024/03/07 00:57:10;;;;;;;10.13;7.03;;;;;;;2.40;49.34;102857.50;5012854;28;20914;-73
2024/03/07 00:59:37;;;;;;;11.93;7.55;;;;;;;2.38;49.22;102849.75;5026008;28;20025;-73
2024/03/07 01:02:03;;;;;;;12.38;8.32;;;;;;;2.33;49.51;102853.88;5026978;28;20041;-68
2024/03/07 01:04:31;;;;;;;14.30;8.05;;;;;;;2.22;49.61;102858.78;5026253;28;20075;-68
2024/03/07 01:06:59;;;;;;;13.35;7.93;;;;;;;2.25;49.82;102852.84;5029581;28;20048;-69
2024/03/07 01:09:28;;;;;;;12.93;7.72;;;;;;;2.18;49.90;102856.97;5026522;28;20148;-70
2024/03/07 01:11:54;;;;;;;13.20;8.50;;;;;;;2.16;49.83;102856.03;5028146;28;20044;-68
2024/03/07 01:14:20;;;;;;;17.27;8.50;;;;;;;2.06;50.11;102846.28;5039352;28;20058;-68
2024/03/07 01:16:47;;;;;;;15.68;8.60;;;;;;;2.00;50.40;102857.34;5026400;28;20047;-68
2024/03/07 01:19:12;;;;;;;13.30;8.57;;;;;;;1.99;50.67;102845.25;5025323;28;20040;-68
2024/03/07 01:21:38;;;;;;;20.52;10.48;;;;;;;1.83;51.16;102850.81;5026249;28;20041;-72
2024/03/07 01:24:04;;;;;;;15.85;9.93;;;;;;;1.83;51.32;102849.13;5031842;28;20053;-69
2024/03/07 01:26:35;;;;;;;20.05;10.75;;;;;;;1.80;51.58;102849.03;5023058;28;20040;-69
2024/03/07 01:29:01;;;;;;;24.83;11.88;;;;;;;1.86;51.28;102850.91;5032746;28;20039;-69
2024/03/07 01:31:27;;;;;;;21.90;12.32;;;;;;;1.77;51.72;102850.66;5018718;28;20040;-69
2024/03/07 01:33:52;;;;;;;20.67;10.35;;;;;;;1.71;51.76;102846.22;5030387;28;20024;-69
2024/03/07 01:36:20;;;;;;;20.65;11.15;;;;;;;1.62;51.97;102836.50;5013024;28;20040;-69
2024/03/07 01:38:45;;;;;;;19.73;10.95;;;;;;;1.53;52.05;102849.13;4993440;28;20143;-69
2024/03/07 01:41:14;;;;;;;22.58;11.73;;;;;;;1.49;51.96;102843.00;5010394;28;20118;-70
2024/03/07 01:43:41;;;;;;;21.25;12.23;;;;;;;1.40;52.18;102839.25;5001264;28;20052;-69
2024/03/07 01:46:08;;;;;;;23.55;10.90;;;;;;;1.35;52.62;102848.53;4992421;28;20229;-70
2024/03/07 01:48:34;;;;;;;23.70;11.80;;;;;;;1.20;52.80;102844.66;4994001;28;20735;-69
2024/03/07 01:51:00;;;;;;;21.02;11.48;;;;;;;1.19;52.79;102842.03;5011569;28;20126;-70
2024/03/07 01:53:29;;;;;;;27.08;12.75;;;;;;;1.06;53.23;102844.25;5006619;28;20185;-70
2024/03/07 01:55:56;;;;;;;22.35;12.10;;;;;;;0.97;53.33;102841.38;5002774;28;20048;-70
2024/03/07 01:58:24;;;;;;;23.52;11.82;;;;;;;0.97;53.36;102835.34;5024481;28;20032;-70
2024/03/07 02:00:49;;;;;;;25.10;11.80;;;;;;;0.96;53.54;102839.63;5018684;28;20037;-69
2024/03/07 02:03:16;;;;;;;24.05;12.13;;;;;;;0.89;53.53;102837.69;5018593;28;20037;-70
2024/03/07 02:05:41;;;;;;;23.08;11.43;;;;;;;0.87;53.64;102839.34;4995607;28;20037;-69
2024/03/07 02:08:09;;;;;;;24.63;11.98;;;;;;;0.87;53.33;102841.91;5026510;28;20021;-67
2024/03/07 02:10:35;;;;;;;23.75;11.13;;;;;;;0.79;53.24;102835.63;5016531;28;20036;-66
2024/03/07 02:13:03;;;;;;;22.48;11.95;;;;;;;0.66;53.50;102836.97;5008156;28;20029;-66
2024/03/07 02:15:29;;;;;;;26.27;12.27;;;;;;;0.62;53.50;102832.53;5007831;28;20098;-72
2024/03/07 02:17:54;;;;;;;21.10;11.32;;;;;;;0.59;53.60;102833.31;5032575;28;20491;-71
2024/03/07 02:20:20;;;;;;;23.27;11.25;;;;;;;0.61;54.02;102826.50;5021480;28;20487;-71
2024/03/07 02:22:46;;;;;;;22.17;11.55;;;;;;;0.56;53.77;102828.03;5024564;28;21196;-71
2024/03/07 02:25:12;;;;;;;22.02;11.88;;;;;;;0.53;53.74;102827.94;5001450;28;20039;-71
2024/03/07 02:27:38;;;;;;;31.27;12.95;;;;;;;0.40;54.39;102829.22;5004400;28;20089;-71
2024/03/07 02:30:05;;;;;;;25.00;12.02;;;;;;;0.35;54.54;102822.19;5031329;28;20124;-70
2024/03/07 02:32:33;;;;;;;28.13;14.10;;;;;;;0.39;54.63;102824.03;5019266;28;20349;-70
2024/03/07 02:34:58;;;;;;;25.23;12.88;;;;;;;0.39;54.54;102818.88;5033335;28;20759;-70
2024/03/07 02:37:24;;;;;;;27.33;12.80;;;;;;;0.36;54.71;102819.66;5017143;28;20099;-71
2024/03/07 02:39:50;;;;;;;34.13;14.02;;;;;;;0.30;54.67;102818.56;5025809;28;20644;-71
2024/03/07 02:42:15;;;;;;;32.10;13.63;;;;;;;0.32;54.66;102811.78;5022691;28;20045;-67
2024/03/07 02:44:41;;;;;;;30.05;14.75;;;;;;;0.27;54.87;102825.34;5021319;28;20040;-69
2024/03/07 02:47:06;;;;;;;29.13;14.60;;;;;;;0.15;55.48;102818.94;5026209;28;20040;-67
2024/03/07 02:49:32;;;;;;;33.90;15.57;;;;;;;0.09;55.59;102823.88;5017519;28;20024;-67
2024/03/07 02:51:58;;;;;;;30.58;16.10;;;;;;;0.00;56.09;102812.44;5025893;28;20036;-67
2024/03/07 02:54:23;;;;;;;23.50;12.63;;;;;;;-0.04;56.30;102815.72;5020191;28;20179;-69
2024/03/07 02:56:48;;;;;;;26.83;14.32;;;;;;;0.17;55.34;102822.44;5024109;28;20047;-66
2024/03/07 02:59:14;;;;;;;34.08;13.40;;;;;;;0.21;55.53;102821.69;5019025;28;20040;-66
2024/03/07 03:01:39;;;;;;;30.33;14.02;;;;;;;0.17;55.78;102823.31;5002656;28;20369;-67
2024/03/07 03:04:05;;;;;;;31.67;15.18;;;;;;;0.10;55.73;102818.78;5008968;28;20033;-70
2024/03/07 03:06:31;;;;;;;27.20;14.32;;;;;;;0.09;55.59;102824.72;4987183;28;20258;-67
2024/03/07 03:08:57;;;;;;;33.28;15.30;;;;;;;0.09;55.82;102819.59;5013254;28;20245;-66
2024/03/07 03:11:22;;;;;;;30.23;14.25;;;;;;;-0.20;56.55;102831.41;5008021;28;20041;-67
2024/03/07 03:13:52;;;;;;;30.73;15.40;;;;;;;-0.22;56.82;102826.22;5008775;28;21209;-67
2024/03/07 03:16:18;;;;;;;30.92;15.48;;;;;;;-0.33;56.94;102829.22;4989672;28;22285;-66
2024/03/07 03:18:43;;;;;;;33.25;15.27;;;;;;;-0.32;56.96;102824.13;4996880;28;20033;-67
2024/03/07 03:21:09;;;;;;;32.47;15.45;;;;;;;-0.17;56.61;102821.22;5005564;28;20218;-69
2024/03/07 03:23:35;;;;;;;36.70;16.77;;;;;;;-0.43;57.06;102823.75;5003580;28;20191;-66
2024/03/07 03:26:01;;;;;;;37.70;16.33;;;;;;;-0.24;57.06;102825.28;4996638;28;20062;-68
2024/03/07 03:28:26;;;;;;;32.28;16.02;;;;;;;0.09;56.34;102823.88;4995465;28;20482;-66
2024/03/07 03:30:52;;;;;;;42.08;18.73;;;;;;;0.07;56.43;102821.22;5003010;28;20813;-68
2024/03/07 03:33:18;;;;;;;37.22;16.20;;;;;;;0.22;56.75;102821.75;5028991;28;20091;-70
2024/03/07 03:35:46;;;;;;;39.20;17.33;;;;;;;0.31;56.35;102823.78;5007655;28;21267;-67
2024/03/07 03:38:12;;;;;;;42.30;18.65;;;;;;;0.16;56.25;102834.41;5009345;28;20047;-66
2024/03/07 03:40:38;;;;;;;44.55;19.65;;;;;;;-0.16;57.20;102834.16;5009905;28;20613;-67
2024/03/07 03:43:03;;;;;;;50.22;18.60;;;;;;;-0.24;57.51;102837.25;5026517;28;20772;-66
2024/03/07 03:45:29;;;;;;;50.55;20.40;;;;;;;0.04;57.23;102837.44;5003820;28;20122;-67
2024/03/07 03:47:54;;;;;;;47.55;20.55;;;;;;;0.10;56.76;102831.63;5016842;28;20040;-66
2024/03/07 03:50:22;;;;;;;51.55;18.75;;;;;;;-0.10;57.18;102832.59;5027372;28;20059;-66
2024/03/07 03:52:48;;;;;;;50.15;19.35;;;;;;;-0.07;57.17;102825.03;5023407;28;20074;-67
2024/03/07 03:55:14;;;;;;;50.38;19.70;;;;;;;-0.20;57.27;102827.13;5032910;28;20037;-65
2024/03/07 03:57:42;;;;;;;55.05;21.50;;;;;;;-0.18;58.09;102822.94;4987679;28;20044;-65
2024/03/07 04:00:12;;;;;;;48.08;20.85;;;;;;;-0.11;57.62;102821.47;5024595;28;20102;-66
2024/03/07 04:02:42;;;;;;;42.45;19.52;;;;;;;-0.10;57.61;102822.31;4988434;28;20047;-66
2024/03/07 04:05:10;;;;;;;49.40;20.15;;;;;;;0.04;57.47;102826.28;5024583;28;20075;-67
2024/03/07 04:07:36;;;;;;;42.22;18.27;;;;;;;0.13;57.10;102831.72;5017569;28;20044;-68
2024/03/07 04:10:11;;;;;;;43.67;18.83;;;;;;;-0.00;57.22;102829.56;5034697;28;20517;-67
2024/03/07 04:12:39;;;;;;;38.42;18.50;;;;;;;-0.01;57.19;102823.53;5014618;28;20407;-68
2024/03/07 04:15:07;;;;;;;39.67;16.48;;;;;;;0.06;57.35;102825.50;5037733;28;20406;-67
2024/03/07 04:17:36;;;;;;;35.88;15.35;;;;;;;-0.32;57.56;102819.00;5026891;28;20036;-69
2024/03/07 04:20:06;;;;;;;37.05;15.20;;;;;;;-0.26;57.61;102806.38;5020991;28;20032;-67
2024/03/07 04:22:32;;;;;;;47.95;15.10;;;;;;;-0.49;58.46;102822.63;5013642;28;21445;-67
2024/03/07 04:24:58;;;;;;;34.65;15.82;;;;;;;-0.35;58.35;102819.78;5011246;28;20151;-67
2024/03/07 04:27:25;;;;;;;33.95;14.60;;;;;;;-0.41;58.26;102814.41;5021193;28;20032;-72
2024/03/07 04:29:51;;;;;;;28.88;14.35;;;;;;;-0.27;58.48;102814.91;5004682;28;20040;-72
2024/03/07 04:32:17;;;;;;;37.13;16.15;;;;;;;-0.09;58.01;102813.81;5013134;28;20321;-72
2024/03/07 04:34:44;;;;;;;34.35;15.50;;;;;;;-0.04;57.96;102820.84;5001407;28;20086;-72
2024/03/07 04:37:10;;;;;;;34.97;13.60;;;;;;;-0.18;57.50;102825.50;5010183;28;20131;-72
2024/03/07 04:39:35;;;;;;;34.75;14.05;;;;;;;-0.02;57.57;102815.78;5011708;28;21797;-72
2024/03/07 04:42:02;;;;;;;34.20;16.38;;;;;;;-0.15;57.72;102815.34;5004774;28;20106;-72
2024/03/07 04:44:32;;;;;;;32.90;14.52;;;;;;;-0.02;57.82;102826.06;5000385;28;20059;-72
2024/03/07 04:46:59;;;;;;;34.40;14.48;;;;;;;-0.15;57.91;102823.06;5005770;28;20033;-71
2024/03/07 04:49:27;;;;;;;37.20;15.35;;;;;;;-0.03;58.29;102814.03;4999466;28;20036;-69
2024/03/07 04:52:01;;;;;;;42.78;16.23;;;;;;;0.14;57.69;102823.19;4998960;28;20040;-70
2024/03/07 04:54:28;;;;;;;36.80;15.80;;;;;;;0.14;57.45;102823.19;5004155;28;20616;-69
2024/03/07 04:56:54;;;;;;;37.90;15.98;;;;;;;0.12;57.88;102824.81;5002179;28;20047;-70
2024/03/07 04:59:24;;;;;;;33.78;15.20;;;;;;;0.20;57.61;102827.69;4994253;28;20207;-69
2024/03/07 05:01:50;;;;;;;37.40;15.18;;;;;;;0.23;57.24;102818.38;4983889;28;20047;-70
2024/03/07 05:04:18;;;;;;;30.10;13.65;;;;;;;0.27;57.25;102821.91;5009750;28;20047;-70
2024/03/07 05:06:48;;;;;;;34.60;15.75;;;;;;;0.19;57.28;102824.25;5024620;28;20041;-70
2024/03/07 05:09:22;;;;;;;34.10;14.45;;;;;;;0.11;57.32;102823.09;5029625;28;20060;-71
2024/03/07 05:11:48;;;;;;;38.60;15.60;;;;;;;0.19;57.80;102821.66;5018256;28;20049;-71
2024/03/07 05:14:20;;;;;;;34.33;14.80;;;;;;;0.18;57.57;102817.34;5018759;28;20047;-71
2024/03/07 05:16:46;;;;;;;44.53;18.58;;;;;;;0.18;57.67;102819.91;5011395;28;20045;-70
2024/03/07 05:19:14;;;;;;;34.67;14.88;;;;;;;0.31;57.31;102815.19;5009088;28;20048;-69
2024/03/07 05:21:40;;;;;;;43.40;14.88;;;;;;;0.08;57.66;102807.56;5017958;28;20041;-68
2024/03/07 05:24:08;;;;;;;35.58;16.25;;;;;;;0.34;57.19;102810.13;5025670;28;20067;-67
2024/03/07 05:26:37;;;;;;;36.20;15.45;;;;;;;0.07;57.81;102813.50;5011160;28;20068;-65
2024/03/07 05:29:08;;;;;;;35.42;16.13;;;;;;;0.10;57.93;102815.31;5019028;28;20109;-65
2024/03/07 05:31:38;;;;;;;32.70;14.30;;;;;;;0.25;57.90;102814.13;5010046;28;20032;-68
2024/03/07 05:34:08;;;;;;;30.48;14.07;;;;;;;0.21;57.65;102814.88;5011221;28;20064;-67
2024/03/07 05:36:43;;;;;;;27.55;13.13;;;;;;;0.27;57.96;102811.63;5023826;28;20142;-67
2024/03/07 05:39:11;;;;;;;34.35;13.48;;;;;;;0.40;57.63;102810.34;5030148;28;20028;-67
2024/03/07 05:41:40;;;;;;;34.30;14.30;;;;;;;0.54;57.46;102810.81;5018555;28;20044;-70
2024/03/07 05:44:11;;;;;;;27.58;12.10;;;;;;;0.41;57.59;102818.13;5042124;27;20105;-69
2024/03/07 05:46:41;;;;;;;30.30;13.57;;;;;;;0.51;57.40;102819.31;5028729;28;20098;-69
2024/03/07 05:49:08;;;;;;;29.83;14.48;;;;;;;0.33;57.85;102813.56;5024479;28;20036;-68
2024/03/07 05:51:34;;;;;;;31.95;13.27;;;;;;;0.37;57.73;102810.25;5027280;28;20119;-68
2024/03/07 05:54:00;;;;;;;30.77;13.05;;;;;;;0.65;57.06;102812.88;5014937;28;20028;-69
2024/03/07 05:56:25;;;;;;;26.10;13.23;;;;;;;0.61;57.50;102821.38;5027238;28;20039;-68
2024/03/07 05:58:51;;;;;;;27.95;13.23;;;;;;;0.63;56.95;102819.69;5012344;28;20123;-69
2024/03/07 06:01:18;;;;;;;33.03;14.50;;;;;;;0.52;57.58;102815.88;4998217;28;20044;-68
2024/03/07 06:03:51;;;;;;;25.70;12.95;;;;;;;0.66;57.27;102814.66;4989543;28;20087;-68
2024/03/07 06:06:17;;;;;;;28.23;12.30;;;;;;;0.52;57.23;102803.03;4988148;28;20044;-69
2024/03/07 06:08:46;;;;;;;26.77;11.35;;;;;;;0.48;57.42;102814.06;5003609;28;20254;-70
2024/03/07 06:11:13;;;;;;;33.47;13.73;;;;;;;0.54;57.61;102809.09;4995392;28;20697;-70
2024/03/07 06:13:38;;;;;;;27.33;10.80;;;;;;;0.76;57.25;102809.81;5025708;28;20033;-70
2024/03/07 06:16:07;;;;;;;28.00;12.32;;;;;;;1.00;56.41;102817.44;5000971;28;20061;-70
2024/03/07 06:18:33;;;;;;;26.80;12.35;;;;;;;0.88;56.46;102811.06;5017557;28;20345;-68
2024/03/07 06:20:59;;;;;;;25.65;12.95;;;;;;;1.06;56.50;102820.16;5000050;28;20044;-66
2024/03/07 06:23:28;;;;;;;26.73;10.70;;;;;;;1.00;56.47;102815.72;4997749;28;20032;-71
2024/03/07 06:25:55;;;;;;;23.70;11.88;;;;;;;0.80;56.77;102821.94;5006438;28;20040;-69
2024/03/07 06:28:21;;;;;;;29.13;12.57;;;;;;;0.90;56.43;102823.97;5004758;28;20196;-66
2024/03/07 06:30:47;;;;;;;26.48;12.45;;;;;;;1.04;56.37;102820.16;5005321;28;20979;-66
2024/03/07 06:33:14;;;;;;;32.03;12.27;;;;;;;1.09;55.96;102826.31;4998676;28;20410;-67
2024/03/07 06:35:41;;;;;;;23.88;11.45;;;;;;;0.97;56.09;102827.63;4980320;28;20032;-67
2024/03/07 06:38:08;;;;;;;27.60;12.35;;;;;;;1.07;55.51;102830.53;5002218;28;20024;-67
2024/03/07 06:40:35;;;;;;;24.15;10.82;;;;;;;0.83;56.45;102832.34;4994781;28;20186;-67
2024/03/07 06:43:00;;;;;;;22.58;10.25;;;;;;;0.76;56.64;102833.84;5005191;28;20426;-69
2024/03/07 06:45:26;;;;;;;30.17;10.82;;;;;;;0.85;56.44;102841.84;5022113;28;20036;-67
2024/03/07 06:47:54;;;;;;;24.60;11.13;;;;;;;0.98;56.21;102827.69;5046520;28;20585;-67
2024/03/07 06:50:21;;;;;;;27.38;10.73;;;;;;;0.94;55.95;102828.41;5021409;28;20117;-69
2024/03/07 06:52:47;;;;;;;21.88;10.40;;;;;;;1.05;55.69;102836.47;5023037;28;20076;-66
2024/03/07 06:55:21;;;;;;;24.33;11.15;;;;;;;1.09;55.75;102828.88;5017550;28;20093;-69
2024/03/07 06:57:46;;;;;;;23.13;10.50;;;;;;;1.10;55.79;102830.66;5005014;28;20501;-67
2024/03/07 07:00:18;;;;;;;26.15;11.45;;;;;;;1.08;55.79;102829.72;5020629;28;20047;-67
2024/03/07 07:02:44;;;;;;;;;;;;;;;1.21;55.75;102823.22;5027256;28;20526;-67
2024/03/07 07:05:15;;;;;;;23.92;10.23;;;;;;;1.31;55.55;102826.97;5021769;28;20539;-69
2024/03/07 07:07:41;;;;;;;25.55;11.18;;;;;;;1.27;55.82;102827.69;5026173;28;20131;-69
2024/03/07 07:10:15;;;;;;;27.88;12.27;;;;;;;1.51;55.01;102831.03;5021248;28;21887;-68
2024/03/07 07:12:51;;;;;;;27.50;11.40;;;;;;;1.59;55.22;102827.78;5022873;28;20710;-67
2024/03/07 07:15:18;;;;;;;26.80;11.63;;;;;;;1.73;55.04;102831.66;5030477;28;20040;-68
2024/03/07 07:17:48;;;;;;;26.88;11.85;;;;;;;1.78;54.72;102832.66;5025338;28;20038;-69
2024/03/07 07:20:15;;;;;;;29.27;11.68;;;;;;;1.69;54.92;102825.53;5020302;28;20068;-68
2024/03/07 07:22:42;;;;;;;23.70;10.70;;;;;;;1.71;54.67;102830.75;5003713;28;20123;-68
2024/03/07 07:25:14;;;;;;;33.28;12.65;;;;;;;1.68;54.80;102825.47;5021058;28;20047;-64
2024/03/07 07:27:44;;;;;;;;;;;;;;;1.81;54.30;102826.69;5009100;28;20072;-67
2024/03/07 07:30:14;;;;;;;22.83;10.30;;;;;;;1.87;54.49;102824.31;5005722;28;20417;-65
2024/03/07 07:32:40;;;;;;;26.60;10.70;;;;;;;1.89;54.79;102823.50;5005402;28;21742;-67
2024/03/07 07:35:11;;;;;;;25.80;11.38;;;;;;;1.71;54.80;102825.59;4993827;28;20056;-67
2024/03/07 07:37:40;;;;;;;18.05;9.35;;;;;;;1.55;54.63;102816.53;5032005;28;20777;-66
2024/03/07 07:40:14;;;;;;;30.38;13.00;;;;;;;1.51;54.40;102822.44;5016895;28;20422;-68
2024/03/07 07:42:41;;;;;;;25.90;11.45;;;;;;;1.35;54.85;102823.66;5021247;28;20677;-67
2024/03/07 07:45:11;;;;;;;26.83;12.32;;;;;;;1.56;54.48;102820.84;5011218;28;20045;-68
2024/03/07 07:47:48;;;;;;;29.80;12.50;;;;;;;1.88;53.79;102816.59;5022787;28;20024;-65
2024/03/07 07:50:18;;;;;;;24.85;10.20;;;;;;;1.83;53.92;102813.00;5008573;28;20060;-67
2024/03/07 07:52:51;;;;;;;21.10;10.48;;;;;;;1.94;53.86;102814.19;5022406;28;20043;-67
2024/03/07 07:55:17;;;;;;;25.67;10.65;;;;;;;2.07;53.73;102811.94;5009835;28;20033;-63
2024/03/07 07:57:44;;;;;;;24.17;10.23;;;;;;;2.40;52.91;102806.78;5036451;28;20069;-65
2024/03/07 08:00:12;;;;;;;19.15;10.57;;;;;;;2.24;52.73;102810.69;5011676;28;20036;-65
2024/03/07 08:02:40;;;;;;;32.47;12.05;;;;;;;1.87;53.25;102814.84;5026697;28;20140;-66
2024/03/07 08:05:06;;;;;;;29.05;11.77;;;;;;;2.10;52.82;102805.16;5010033;28;20718;-66
2024/03/07 08:07:32;;;;;;;28.30;11.48;;;;;;;2.30;52.98;102800.50;5025075;28;20093;-67
2024/03/07 08:09:57;;;;;;;22.33;11.23;;;;;;;2.39;52.70;102807.59;5014553;28;20059;-69
2024/03/07 08:12:23;;;;;;;28.77;12.80;;;;;;;2.25;52.39;102802.09;5011166;28;20044;-69
2024/03/07 08:14:48;;;;;;;29.15;11.63;;;;;;;2.39;52.20;102799.00;5024367;28;20100;-68
2024/03/07 08:17:14;;;;;;;29.52;10.70;;;;;;;2.56;51.92;102800.28;5015762;28;20044;-67
2024/03/07 08:19:40;;;;;;;37.55;12.32;;;;;;;2.24;52.22;102800.38;5010519;28;20025;-67
2024/03/07 08:22:06;;;;;;;20.85;9.63;;;;;;;2.33;52.03;102798.00;4993981;28;20045;-67
2024/03/07 08:24:32;;;;;;;26.00;10.20;;;;;;;2.19;52.48;102799.34;5003801;28;20138;-67
2024/03/07 08:26:57;;;;;;;19.13;10.23;;;;;;;1.87;53.31;102798.50;4999974;28;20575;-67
2024/03/07 08:29:24;;;;;;;21.48;9.52;;;;;;;2.18;52.94;102796.75;5003136;28;20482;-67
2024/03/07 08:31:49;;;;;;;25.92;11.18;;;;;;;2.28;52.80;102797.00;5007300;28;20044;-67
2024/03/07 08:34:15;;;;;;;27.65;10.95;;;;;;;1.97;53.50;102802.19;5013713;28;20365;-67
2024/03/07 08:36:41;;;;;;;21.42;9.98;;;;;;;2.12;53.29;102800.03;5024490;28;20642;-67
2024/03/07 08:39:10;;;;;;;18.48;9.73;;;;;;;2.35;52.64;102803.19;5017733;28;20195;-66
2024/03/07 08:41:40;;;;;;;32.28;13.07;;;;;;;2.16;53.41;102799.28;5028835;28;20060;-67
2024/03/07 08:44:07;;;;;;;29.48;11.15;;;;;;;2.20;53.42;102798.53;5005334;28;20032;-67
2024/03/07 08:46:33;;;;;;;19.58;9.30;;;;;;;2.51;53.04;102801.88;5027346;28;20127;-67
2024/03/07 08:49:01;;;;;;;23.05;10.02;;;;;;;2.60;52.68;102796.94;5022793;28;20123;-67
2024/03/07 08:51:27;;;;;;;18.27;9.68;;;;;;;2.81;52.38;102796.56;5032391;28;20128;-69
2024/03/07 08:53:53;;;;;;;16.55;8.32;;;;;;;2.73;52.33;102804.16;5022568;28;20028;-67
2024/03/07 08:56:18;;;;;;;18.23;9.13;;;;;;;2.88;52.28;102803.63;5019081;28;20064;-67
2024/03/07 08:58:44;;;;;;;19.63;9.52;;;;;;;2.87;51.63;102790.69;5026811;28;20162;-67
2024/03/07 09:01:10;;;;;;;19.02;9.20;;;;;;;2.98;51.85;102791.81;5034967;28;20037;-67
2024/03/07 09:03:35;;;;;;;18.38;8.20;;;;;;;2.85;51.81;102790.66;5028331;28;20064;-67
2024/03/07 09:06:00;;;;;;;26.85;9.57;;;;;;;2.69;51.94;102791.09;5021873;28;20128;-68
2024/03/07 09:08:26;;;;;;;25.65;9.40;;;;;;;2.49;52.20;102791.53;5028675;28;20055;-67
2024/03/07 09:10:55;;;;;;;24.83;10.98;;;;;;;2.68;51.96;102787.66;5025444;28;20041;-67
2024/03/07 09:13:21;;;;;;;17.33;8.35;;;;;;;2.68;51.81;102792.81;5019440;28;21262;-67
2024/03/07 09:15:46;;;;;;;24.33;9.48;;;;;;;2.76;51.69;102795.59;5023744;28;20064;-67
2024/03/07 09:18:12;;;;;;;24.48;8.98;;;;;;;2.86;51.84;102791.50;5018813;28;20115;-68
2024/03/07 09:20:38;;;;;;;23.13;9.55;;;;;;;2.84;51.66;102793.19;5021531;28;20174;-69
2024/03/07 09:23:03;;;;;;;21.48;10.50;;;;;;;2.96;51.28;102793.47;5020037;28;20461;-68
2024/03/07 09:25:32;;;;;;;20.42;9.23;;;;;;;2.51;52.26;102789.84;5023891;28;20047;-68
2024/03/07 09:28:01;;;;;;;24.95;9.65;;;;;;;2.57;52.23;102795.13;5026088;28;21071;-68
2024/03/07 09:30:27;;;;;;;20.27;9.50;;;;;;;2.53;52.14;102792.44;5016858;28;20121;-69
2024/03/07 09:32:57;;;;;;;23.08;9.73;;;;;;;2.34;52.75;102781.69;5024398;28;20486;-68
2024/03/07 09:35:22;;;;;;;19.05;8.43;;;;;;;2.40;52.30;102785.25;5023142;28;20712;-69
2024/03/07 09:37:48;;;;;;;19.48;9.43;;;;;;;2.49;52.11;102785.50;5022852;28;20125;-69
2024/03/07 09:40:13;;;;;;;18.98;8.70;;;;;;;2.57;52.01;102789.97;5014286;28;20028;-69
2024/03/07 09:42:52;;;;;;;17.85;8.50;;;;;;;2.34;51.86;102786.84;5021866;28;20042;-69
2024/03/07 09:45:21;;;;;;;21.45;8.43;;;;;;;2.83;50.73;102783.72;5019267;28;20044;-68
2024/03/07 09:47:48;;;;;;;22.40;9.48;;;;;;;2.93;50.83;102783.06;5023738;28;20079;-68
2024/03/07 09:50:18;;;;;;;16.73;9.35;;;;;;;2.97;50.69;102783.16;5009584;28;20071;-70
2024/03/07 09:52:45;;;;;;;23.42;8.68;;;;;;;3.21;49.82;102784.53;4997497;28;20799;-69
2024/03/07 09:55:13;;;;;;;21.02;9.77;;;;;;;3.54;49.60;102784.41;5016106;28;20044;-70
2024/03/07 09:57:40;;;;;;;14.05;7.90;;;;;;;3.55;48.81;102775.78;5024894;28;20071;-69
2024/03/07 10:00:08;;;;;;;18.35;7.20;;;;;;;3.72;47.99;102781.31;5006901;28;20094;-69
2024/03/07 10:02:40;;;;;;;18.45;8.55;;;;;;;4.17;47.04;102782.13;5016115;28;20033;-69
2024/03/07 10:05:10;;;;;;;21.45;8.18;;;;;;;3.93;46.84;102779.97;5014645;28;20102;-69
2024/03/07 10:07:36;;;;;;;15.80;6.43;;;;;;;4.48;46.25;102782.63;5021457;28;20055;-69
2024/03/07 10:10:09;;;;;;;14.45;7.55;;;;;;;4.64;45.74;102784.63;5022875;28;20044;-69
2024/03/07 10:12:37;;;;;;;13.05;6.22;;;;;;;4.90;44.37;102782.44;5018694;28;20033;-68
2024/03/07 10:15:05;;;;;;;15.88;6.90;;;;;;;5.38;45.10;102783.94;5015993;28;20029;-68
2024/03/07 10:17:31;;;;;;;14.25;6.00;;;;;;;6.00;43.03;102782.03;5019196;28;20101;-68
2024/03/07 10:20:00;;;;;;;17.27;6.43;;;;;;;6.39;40.74;102775.47;5022101;28;20037;-68
2024/03/07 10:22:26;;;;;;;13.25;6.18;;;;;;;6.85;40.38;102775.81;5018977;28;20087;-68
2024/03/07 10:24:57;;;;;;;8.95;5.43;;;;;;;7.00;40.35;102775.00;5022403;28;20102;-69
2024/03/07 10:27:23;;;;;;;12.80;5.47;;;;;;;6.36;39.64;102775.47;5016354;28;20063;-68
2024/03/07 10:29:51;;;;;;;12.40;5.97;;;;;;;5.71;41.62;102785.19;5022686;28;20509;-68
2024/03/07 10:32:20;;;;;;;9.27;5.35;;;;;;;6.31;40.83;102772.81;5020975;28;20044;-68
2024/03/07 10:34:48;;;;;;;12.20;5.95;;;;;;;6.93;41.19;102768.03;5022009;28;20028;-69
2024/03/07 10:37:17;;;;;;;10.93;5.85;;;;;;;7.50;40.99;102762.22;5020031;28;20037;-69
2024/03/07 10:39:49;;;;;;;16.80;6.38;;;;;;;7.79;39.53;102760.59;5015149;28;20885;-69
2024/03/07 10:42:16;;;;;;;14.82;5.70;;;;;;;7.78;37.68;102758.84;4994166;28;20045;-69
2024/03/07 10:44:45;;;;;;;11.25;4.72;;;;;;;7.44;36.79;102758.72;5005537;28;20316;-69
2024/03/07 10:47:19;;;;;;;10.25;4.78;;;;;;;6.70;38.39;102760.97;4995198;28;20343;-68
2024/03/07 10:50:15;;;;;;;10.32;5.50;;;;;;;7.39;38.24;102750.91;5000853;28;20439;-68
2024/03/07 10:53:10;;;;;;;12.15;5.78;;;;;;;7.49;37.01;102754.44;4969529;28;20033;-68
2024/03/07 10:56:11;;;;;;;11.18;5.45;;;;;;;6.86;37.42;102752.44;4973456;28;20052;-68
2024/03/07 10:58:44;;;;;;;11.07;5.88;;;;;;;6.95;38.05;102755.91;5000867;28;20083;-68
2024/03/07 11:01:12;;;;;;;10.43;6.63;;;;;;;7.18;38.81;102745.66;4997541;28;21446;-68
2024/03/07 11:03:39;;;;;;;9.35;4.97;;;;;;;7.43;36.85;102751.78;5001306;28;20093;-69
2024/03/07 11:06:11;;;;;;;8.07;6.05;;;;;;;7.56;38.02;102747.50;5008631;28;20049;-68
2024/03/07 11:08:37;;;;;;;9.13;5.45;;;;;;;7.97;36.94;102746.72;5011409;28;20032;-68
2024/03/07 11:11:03;;;;;;;9.55;5.45;;;;;;;8.00;36.14;102742.38;4997108;28;20036;-68
2024/03/07 11:13:30;;;;;;;9.85;5.85;;;;;;;7.56;36.59;102740.59;4992890;28;20017;-68
2024/03/07 11:15:58;;;;;;;15.27;7.07;;;;;;;7.72;36.63;102751.91;5029244;28;20064;-68
2024/03/07 11:18:24;;;;;;;15.18;5.97;;;;;;;7.44;36.68;102741.38;5014949;28;20037;-68
2024/03/07 11:20:50;;;;;;;13.07;7.45;;;;;;;6.65;38.13;102747.09;5024868;28;20745;-68